FD331 YBMK-YBRK
Flight info
| Callsign | FD331 |
|---|---|
| Flight time | 0h 32m |
| Altitude | 19000 |
| Route | MUNAR V153 RK |
| Aircraft | TBM9/L-SDFGRWY/S |
Departure
| Time | 2026-05-04 02:23 |
|---|---|
| Airport | Mackay Airport (YBMK) |
Arrival
| Time | 2026-05-04 02:55 |
|---|---|
| Airport | Rockhampton Airport (YBRK) |
| Time | Latitude | Longitude | Altitude | Speed | Heading |
|---|---|---|---|---|---|
| 2026-05-04 02:16 | -21.17542 | 149.17741 | 24 ft | 0 kts | 237° |
| 2026-05-04 02:17 | -21.17556 | 149.17712 | 22 ft | 8 kts | 258° |
| 2026-05-04 02:17 | -21.17534 | 149.17688 | 23 ft | 7 kts | 57° |
| 2026-05-04 02:17 | -21.17489 | 149.17769 | 21 ft | 12 kts | 58° |
| 2026-05-04 02:18 | -21.17431 | 149.17869 | 20 ft | 14 kts | 58° |
| 2026-05-04 02:18 | -21.17404 | 149.17898 | 20 ft | 0 kts | 8° |
| 2026-05-04 02:18 | -21.17357 | 149.17876 | 19 ft | 13 kts | 329° |
| 2026-05-04 02:18 | -21.17289 | 149.17893 | 20 ft | 12 kts | 56° |
| 2026-05-04 02:19 | -21.17216 | 149.18018 | 21 ft | 15 kts | 49° |
| 2026-05-04 02:19 | -21.17199 | 149.18044 | 23 ft | 5 kts | 57° |
| 2026-05-04 02:19 | -21.17168 | 149.18100 | 23 ft | 10 kts | 57° |
| 2026-05-04 02:19 | -21.17129 | 149.18166 | 23 ft | 11 kts | 56° |
| 2026-05-04 02:20 | -21.17126 | 149.18171 | 26 ft | 0 kts | 57° |
| 2026-05-04 02:20 | -21.17092 | 149.18230 | 26 ft | 15 kts | 50° |
| 2026-05-04 02:21 | -21.16977 | 149.18192 | 26 ft | 27 kts | 330° |
| 2026-05-04 02:21 | -21.16799 | 149.18074 | 22 ft | 32 kts | 328° |
| 2026-05-04 02:21 | -21.16620 | 149.17951 | 23 ft | 27 kts | 327° |
| 2026-05-04 02:21 | -21.16445 | 149.17833 | 20 ft | 31 kts | 320° |
| 2026-05-04 02:22 | -21.16339 | 149.17742 | 24 ft | 6 kts | 51° |
| 2026-05-04 02:22 | -21.16438 | 149.17829 | 20 ft | 46 kts | 148° |
| 2026-05-04 02:22 | -21.16897 | 149.18137 | 28 ft | 107 kts | 147° |
| 2026-05-04 02:22 | -21.17605 | 149.18618 | 347 ft | 128 kts | 148° |
| 2026-05-04 02:23 | -21.18363 | 149.19088 | 1047 ft | 122 kts | 148° |
| 2026-05-04 02:23 | -21.19101 | 149.19485 | 1748 ft | 126 kts | 165° |
| 2026-05-04 02:23 | -21.20058 | 149.19339 | 1921 ft | 166 kts | 201° |
| 2026-05-04 02:23 | -21.21194 | 149.18701 | 2006 ft | 196 kts | 206° |
| 2026-05-04 02:24 | -21.22341 | 149.17947 | 2562 ft | 192 kts | 209° |
| 2026-05-04 02:24 | -21.23457 | 149.17189 | 3130 ft | 187 kts | 204° |
| 2026-05-04 02:24 | -21.24696 | 149.16948 | 3712 ft | 181 kts | 172° |
| 2026-05-04 02:24 | -21.25920 | 149.17123 | 4380 ft | 174 kts | 167° |
| 2026-05-04 02:25 | -21.27061 | 149.17469 | 5054 ft | 168 kts | 160° |
| 2026-05-04 02:25 | -21.28152 | 149.17860 | 5719 ft | 166 kts | 160° |
| 2026-05-04 02:25 | -21.29237 | 149.18244 | 6396 ft | 163 kts | 159° |
| 2026-05-04 02:25 | -21.30302 | 149.18623 | 7044 ft | 160 kts | 159° |
| 2026-05-04 02:26 | -21.31341 | 149.18995 | 7694 ft | 157 kts | 159° |
| 2026-05-04 02:26 | -21.32375 | 149.19362 | 8349 ft | 156 kts | 159° |
| 2026-05-04 02:26 | -21.33442 | 149.19748 | 8790 ft | 167 kts | 160° |
| 2026-05-04 02:26 | -21.34581 | 149.20157 | 9249 ft | 177 kts | 160° |
| 2026-05-04 02:27 | -21.35778 | 149.20594 | 9711 ft | 186 kts | 160° |
| 2026-05-04 02:27 | -21.37027 | 149.21054 | 10154 ft | 194 kts | 160° |
| 2026-05-04 02:27 | -21.38306 | 149.21534 | 10574 ft | 200 kts | 160° |
| 2026-05-04 02:27 | -21.39641 | 149.22047 | 10988 ft | 207 kts | 160° |
| 2026-05-04 02:28 | -21.41009 | 149.22586 | 11413 ft | 213 kts | 160° |
| 2026-05-04 02:28 | -21.42413 | 149.23148 | 11854 ft | 218 kts | 162° |
| 2026-05-04 02:28 | -21.43916 | 149.23308 | 12292 ft | 219 kts | 186° |
| 2026-05-04 02:28 | -21.45411 | 149.23006 | 12747 ft | 220 kts | 204° |
| 2026-05-04 02:29 | -21.46757 | 149.22243 | 13207 ft | 220 kts | 216° |
| 2026-05-04 02:29 | -21.48043 | 149.21375 | 13651 ft | 223 kts | 213° |
| 2026-05-04 02:29 | -21.49538 | 149.20857 | 14068 ft | 231 kts | 191° |
| 2026-05-04 02:29 | -21.51154 | 149.20904 | 14464 ft | 236 kts | 172° |
| 2026-05-04 02:30 | -21.52749 | 149.21382 | 14873 ft | 240 kts | 165° |
| 2026-05-04 02:30 | -21.54340 | 149.21954 | 15294 ft | 242 kts | 164° |
| 2026-05-04 02:30 | -21.55936 | 149.22539 | 15731 ft | 242 kts | 164° |
| 2026-05-04 02:30 | -21.57512 | 149.23126 | 16277 ft | 238 kts | 164° |
| 2026-05-04 02:31 | -21.59061 | 149.23715 | 16822 ft | 234 kts | 163° |
| 2026-05-04 02:31 | -21.60586 | 149.24304 | 17384 ft | 231 kts | 163° |
| 2026-05-04 02:31 | -21.62089 | 149.24890 | 17948 ft | 229 kts | 163° |
| 2026-05-04 02:31 | -21.63559 | 149.25472 | 18490 ft | 227 kts | 163° |
| 2026-05-04 02:32 | -21.65030 | 149.26066 | 18997 ft | 225 kts | 164° |
| 2026-05-04 02:32 | -21.66484 | 149.26667 | 19502 ft | 223 kts | 163° |
| 2026-05-04 02:32 | -21.67915 | 149.27272 | 20022 ft | 220 kts | 163° |
| 2026-05-04 02:32 | -21.69338 | 149.27886 | 20484 ft | 222 kts | 163° |
| 2026-05-04 02:33 | -21.70785 | 149.28516 | 20913 ft | 226 kts | 163° |
| 2026-05-04 02:33 | -21.72253 | 149.29163 | 21348 ft | 230 kts | 163° |
| 2026-05-04 02:33 | -21.73735 | 149.29825 | 21791 ft | 232 kts | 163° |
| 2026-05-04 02:33 | -21.75234 | 149.30501 | 22241 ft | 236 kts | 163° |
| 2026-05-04 02:34 | -21.76784 | 149.31196 | 22337 ft | 256 kts | 164° |
| 2026-05-04 02:34 | -21.78501 | 149.31949 | 22356 ft | 276 kts | 164° |
| 2026-05-04 02:34 | -21.80331 | 149.32735 | 22381 ft | 290 kts | 164° |
| 2026-05-04 02:34 | -21.82187 | 149.33532 | 22836 ft | 285 kts | 164° |
| 2026-05-04 02:35 | -21.84008 | 149.34329 | 23330 ft | 281 kts | 164° |
| 2026-05-04 02:35 | -21.85801 | 149.35132 | 23788 ft | 278 kts | 164° |
| 2026-05-04 02:35 | -21.87568 | 149.35936 | 24192 ft | 274 kts | 164° |
| 2026-05-04 02:35 | -21.89297 | 149.36730 | 24604 ft | 272 kts | 164° |
| 2026-05-04 02:36 | -21.91033 | 149.37531 | 25010 ft | 272 kts | 164° |
| 2026-05-04 02:36 | -21.92815 | 149.38346 | 25081 ft | 286 kts | 164° |
| 2026-05-04 02:36 | -21.94704 | 149.39194 | 25091 ft | 300 kts | 164° |
| 2026-05-04 02:36 | -21.96676 | 149.40066 | 25091 ft | 312 kts | 164° |
| 2026-05-04 02:37 | -21.98715 | 149.40960 | 25101 ft | 321 kts | 164° |
| 2026-05-04 02:37 | -22.00809 | 149.41871 | 25100 ft | 327 kts | 164° |
| 2026-05-04 02:37 | -22.02939 | 149.42792 | 25097 ft | 331 kts | 164° |
| 2026-05-04 02:37 | -22.10927 | 149.46217 | 25092 ft | 348 kts | 164° |
| 2026-05-04 02:38 | -22.27781 | 149.53382 | 25095 ft | 356 kts | 164° |
| 2026-05-04 02:38 | -22.30086 | 149.54360 | 25091 ft | 356 kts | 164° |
| 2026-05-04 02:38 | -22.32388 | 149.55338 | 25090 ft | 356 kts | 164° |
| 2026-05-04 02:38 | -22.34692 | 149.56316 | 25093 ft | 356 kts | 165° |
| 2026-05-04 02:39 | -22.37049 | 149.57034 | 25091 ft | 349 kts | 177° |
| 2026-05-04 02:39 | -22.39446 | 149.57338 | 25090 ft | 346 kts | 181° |
| 2026-05-04 02:39 | -22.41848 | 149.57573 | 25007 ft | 348 kts | 182° |
| 2026-05-04 02:39 | -22.44294 | 149.57805 | 24712 ft | 357 kts | 181° |
| 2026-05-04 02:40 | -22.46733 | 149.58213 | 24408 ft | 366 kts | 170° |
| 2026-05-04 02:40 | -22.49050 | 149.59422 | 24080 ft | 376 kts | 149° |
| 2026-05-04 02:40 | -22.51066 | 149.61234 | 23736 ft | 379 kts | 141° |
| 2026-05-04 02:40 | -22.52969 | 149.63208 | 23310 ft | 379 kts | 139° |
| 2026-05-04 02:41 | -22.54842 | 149.65219 | 22874 ft | 379 kts | 138° |
| 2026-05-04 02:41 | -22.56704 | 149.67233 | 22440 ft | 379 kts | 138° |
| 2026-05-04 02:41 | -22.58570 | 149.69250 | 22018 ft | 379 kts | 137° |
| 2026-05-04 02:41 | -22.60436 | 149.71256 | 21599 ft | 378 kts | 137° |
| 2026-05-04 02:42 | -22.62302 | 149.73253 | 21151 ft | 378 kts | 138° |
| 2026-05-04 02:42 | -22.64152 | 149.75221 | 20705 ft | 377 kts | 138° |
| 2026-05-04 02:42 | -22.66026 | 149.77205 | 20254 ft | 377 kts | 137° |
| 2026-05-04 02:42 | -22.67901 | 149.79183 | 19827 ft | 377 kts | 137° |
| 2026-05-04 02:43 | -22.69782 | 149.81159 | 19414 ft | 376 kts | 138° |
| 2026-05-04 02:43 | -22.71660 | 149.83120 | 19006 ft | 375 kts | 138° |
| 2026-05-04 02:43 | -22.73542 | 149.85076 | 18603 ft | 373 kts | 138° |
| 2026-05-04 02:43 | -22.75411 | 149.87008 | 18184 ft | 371 kts | 138° |
| 2026-05-04 02:44 | -22.77283 | 149.88929 | 17724 ft | 368 kts | 138° |
| 2026-05-04 02:44 | -22.79112 | 149.90804 | 17274 ft | 366 kts | 138° |
| 2026-05-04 02:44 | -22.80955 | 149.92695 | 16824 ft | 364 kts | 138° |
| 2026-05-04 02:44 | -22.82780 | 149.94564 | 16529 ft | 358 kts | 138° |
| 2026-05-04 02:45 | -22.84574 | 149.96398 | 16340 ft | 350 kts | 138° |
| 2026-05-04 02:45 | -22.86327 | 149.98190 | 16254 ft | 343 kts | 138° |
| 2026-05-04 02:45 | -22.88054 | 149.99960 | 15992 ft | 344 kts | 138° |
| 2026-05-04 02:45 | -22.89815 | 150.01755 | 15469 ft | 350 kts | 138° |
| 2026-05-04 02:46 | -22.91600 | 150.03569 | 14958 ft | 352 kts | 138° |
| 2026-05-04 02:46 | -22.93390 | 150.05380 | 14440 ft | 352 kts | 138° |
| 2026-05-04 02:46 | -22.95159 | 150.07162 | 13900 ft | 343 kts | 138° |
| 2026-05-04 02:46 | -22.96875 | 150.08885 | 13304 ft | 337 kts | 138° |
| 2026-05-04 02:47 | -22.98584 | 150.10596 | 12702 ft | 332 kts | 138° |
| 2026-05-04 02:47 | -23.00270 | 150.12277 | 12115 ft | 327 kts | 138° |
| 2026-05-04 02:47 | -23.01938 | 150.13931 | 11534 ft | 323 kts | 138° |
| 2026-05-04 02:47 | -23.03591 | 150.15557 | 10967 ft | 318 kts | 138° |
| 2026-05-04 02:48 | -23.05229 | 150.17151 | 10411 ft | 314 kts | 138° |
| 2026-05-04 02:48 | -23.06847 | 150.18711 | 9859 ft | 309 kts | 138° |
| 2026-05-04 02:48 | -23.08444 | 150.20238 | 9307 ft | 302 kts | 138° |
| 2026-05-04 02:48 | -23.09978 | 150.21710 | 8704 ft | 297 kts | 139° |
| 2026-05-04 02:49 | -23.11513 | 150.23194 | 7989 ft | 294 kts | 138° |
| 2026-05-04 02:49 | -23.12817 | 150.24848 | 7261 ft | 280 kts | 121° |
| 2026-05-04 02:49 | -23.13445 | 150.26769 | 6725 ft | 262 kts | 105° |
| 2026-05-04 02:49 | -23.13798 | 150.28660 | 6260 ft | 251 kts | 103° |
| 2026-05-04 02:50 | -23.14108 | 150.30510 | 5775 ft | 246 kts | 103° |
| 2026-05-04 02:50 | -23.14421 | 150.32323 | 5303 ft | 243 kts | 103° |
| 2026-05-04 02:50 | -23.14723 | 150.34120 | 4977 ft | 238 kts | 103° |
| 2026-05-04 02:50 | -23.15172 | 150.35753 | 4984 ft | 222 kts | 121° |
| 2026-05-04 02:51 | -23.16192 | 150.36957 | 4939 ft | 217 kts | 142° |
| 2026-05-04 02:51 | -23.17417 | 150.37956 | 4665 ft | 225 kts | 144° |
| 2026-05-04 02:51 | -23.22217 | 150.41498 | 3876 ft | 266 kts | 153° |
| 2026-05-04 02:51 | -23.25151 | 150.42780 | 3484 ft | 270 kts | 160° |
| 2026-05-04 02:52 | -23.26934 | 150.43431 | 3105 ft | 267 kts | 161° |
| 2026-05-04 02:52 | -23.28569 | 150.43990 | 2544 ft | 230 kts | 164° |
| 2026-05-04 02:52 | -23.30064 | 150.44334 | 1976 ft | 209 kts | 166° |
| 2026-05-04 02:52 | -23.31227 | 150.44629 | 1836 ft | 145 kts | 162° |
| 2026-05-04 02:53 | -23.32129 | 150.44926 | 1469 ft | 132 kts | 159° |
| 2026-05-04 02:53 | -23.32920 | 150.45232 | 1267 ft | 110 kts | 158° |
| 2026-05-04 02:53 | -23.33615 | 150.45518 | 1115 ft | 104 kts | 155° |
| 2026-05-04 02:53 | -23.34308 | 150.45794 | 924 ft | 104 kts | 155° |
| 2026-05-04 02:54 | -23.34946 | 150.46133 | 737 ft | 104 kts | 151° |
| 2026-05-04 02:54 | -23.35629 | 150.46437 | 516 ft | 107 kts | 158° |
| 2026-05-04 02:54 | -23.36300 | 150.46741 | 325 ft | 101 kts | 154° |
| 2026-05-04 02:54 | -23.36884 | 150.47017 | 74 ft | 81 kts | 152° |
| 2026-05-04 02:55 | -23.37772 | 150.47424 | 35 ft | 51 kts | 147° |
| 2026-05-04 02:55 | -23.37968 | 150.47525 | 33 ft | 9 kts | 166° |
| 2026-05-04 02:55 | -23.38006 | 150.47546 | 33 ft | 10 kts | 336° |
| 2026-05-04 02:56 | -23.37923 | 150.47507 | 33 ft | 23 kts | 337° |
| 2026-05-04 02:56 | -23.37755 | 150.47433 | 36 ft | 27 kts | 340° |
| 2026-05-04 02:56 | -23.37583 | 150.47356 | 37 ft | 28 kts | 339° |
| 2026-05-04 02:56 | -23.37496 | 150.47351 | 38 ft | 13 kts | 67° |
| 2026-05-04 02:57 | -23.37456 | 150.47456 | 37 ft | 6 kts | 65° |
| 2026-05-04 02:57 | -23.37442 | 150.47492 | 37 ft | 4 kts | 66° |
| 2026-05-04 02:57 | -23.37416 | 150.47517 | 37 ft | 8 kts | 28° |
| 2026-05-04 02:57 | -23.37386 | 150.47513 | 37 ft | 5 kts | 253° |
| 2026-05-04 02:58 | -23.37394 | 150.47482 | 37 ft | 0 kts | 256° |